createdAt,value
2017-05-04T00:00:00.338Z,52.19
2017-05-04T00:01:10.283Z,52.56
2017-05-04T00:02:20.551Z,53.23
2017-05-04T00:03:30.808Z,53.42
2017-05-04T00:04:41.071Z,52.85
2017-05-04T00:05:51.340Z,53.33
2017-05-04T00:07:01.294Z,53.14
2017-05-04T00:08:11.240Z,53.61
2017-05-04T00:09:21.523Z,53.61
2017-05-04T00:10:31.780Z,54.37
2017-05-04T00:11:42.037Z,54.08
2017-05-04T00:12:52.297Z,54.18
2017-05-04T00:14:02.560Z,54.63
2017-05-04T00:15:12.831Z,55.22
2017-05-04T00:16:23.088Z,55.1
2017-05-04T00:17:33.353Z,55.76
2017-05-04T00:18:43.622Z,56.15
2017-05-04T00:19:53.884Z,55.57
2017-05-04T00:21:04.148Z,55.19
2017-05-04T00:22:14.087Z,55.86
2017-05-04T00:23:24.351Z,56.15
2017-05-04T00:24:34.613Z,55.86
2017-05-04T00:25:44.875Z,56.24
2017-05-04T00:26:55.143Z,55.86
2017-05-04T00:28:05.406Z,56.05
2017-05-04T00:29:14.729Z,55.1
2017-05-04T00:30:25.001Z,55.38
2017-05-04T00:31:35.256Z,54.34
2017-05-04T00:32:45.530Z,54.82
2017-05-04T00:33:55.797Z,54.72
2017-05-04T00:35:06.067Z,54.53
2017-05-04T00:36:16.337Z,54.72
2017-05-04T00:37:26.285Z,54.63
2017-05-04T00:38:36.562Z,54.53
2017-05-04T00:39:46.821Z,54.91
2017-05-04T00:40:57.089Z,55.38
2017-05-04T00:42:07.035Z,55.67
2017-05-04T00:43:16.977Z,56.05
2017-05-04T00:44:27.232Z,55.86
2017-05-04T00:45:37.182Z,55.57
2017-05-04T00:46:47.132Z,55.96
2017-05-04T00:47:57.399Z,55.86
2017-05-04T00:49:07.661Z,55.19
2017-05-04T00:50:17.609Z,55.19
2017-05-04T00:51:27.873Z,55.1
2017-05-04T00:52:38.133Z,55.67
2017-05-04T00:53:48.396Z,55.19
2017-05-04T00:54:58.661Z,55.1
2017-05-04T00:56:08.607Z,55.29
2017-05-04T00:57:18.880Z,55.29
2017-05-04T00:58:29.136Z,55.38
2017-05-04T00:59:39.088Z,55.96
2017-05-04T01:00:49.348Z,55.67
2017-05-04T01:01:59.297Z,55.96
2017-05-04T01:03:09.583Z,56.15
2017-05-04T01:04:19.839Z,56.24
2017-05-04T01:05:30.102Z,55.67
2017-05-04T01:06:40.048Z,55.48
2017-05-04T01:07:50.314Z,55.57
2017-05-04T01:09:00.567Z,55.48
2017-05-04T01:10:10.828Z,56.15
2017-05-04T01:11:20.459Z,55.67
2017-05-04T01:12:30.414Z,55.67
2017-05-04T01:15:11.739Z,55.76
2017-05-04T01:16:21.681Z,55.29
2017-05-04T01:17:31.944Z,55.1
2017-05-04T01:18:42.209Z,55.38
2017-05-04T01:19:52.771Z,55.48
2017-05-04T01:21:03.026Z,55.29
2017-05-04T01:22:13.282Z,56.05
2017-05-04T01:23:23.224Z,55.96
2017-05-04T01:24:33.171Z,55.86
2017-05-04T01:25:43.710Z,55.57
2017-05-04T01:26:53.656Z,55.29
2017-05-04T01:28:03.916Z,56.05
2017-05-04T01:29:14.176Z,55.76
2017-05-04T01:30:24.454Z,55.29
2017-05-04T01:31:38.532Z,55
2017-05-04T01:32:48.788Z,55.38
2017-05-04T01:33:58.735Z,55.67
2017-05-04T01:35:08.994Z,55.57
2017-05-04T01:36:18.938Z,55.93
2017-05-04T01:37:29.440Z,56.24
2017-05-04T01:38:39.703Z,56.24
2017-05-04T01:39:49.961Z,55.86
2017-05-04T01:41:00.220Z,56.02
2017-05-04T01:42:10.171Z,56.87
2017-05-04T01:43:20.731Z,57.35
2017-05-04T01:44:30.990Z,57.16
2017-05-04T01:45:41.253Z,57.25
2017-05-04T01:46:51.535Z,57.16
2017-05-04T01:48:01.798Z,57.92
2017-05-04T01:49:12.302Z,58.01
2017-05-04T01:50:22.248Z,58.67
2017-05-04T01:51:32.510Z,59.63
2017-05-04T01:52:42.797Z,59.63
2017-05-04T01:53:53.057Z,59.05
2017-05-04T01:55:03.614Z,58.67
2017-05-04T01:56:13.554Z,58.77
2017-05-04T01:57:23.496Z,58.77
2017-05-04T01:58:33.441Z,58.2
2017-05-04T01:59:43.706Z,58.67
2017-05-04T02:00:54.223Z,58.01
2017-05-04T02:02:04.492Z,58.11
2017-05-04T02:03:14.750Z,58.01
2017-05-04T02:04:25.012Z,58.11
2017-05-04T02:05:34.959Z,58.29
2017-05-04T02:06:45.517Z,57.44
2017-05-04T02:07:55.767Z,58.11
2017-05-04T02:09:05.400Z,57.92
2017-05-04T02:10:15.342Z,57.82
2017-05-04T02:11:25.607Z,58.01
2017-05-04T02:12:36.168Z,58.01
2017-05-04T02:13:46.437Z,58.58
2017-05-04T02:14:56.383Z,58.2
2017-05-04T02:16:06.646Z,58.77
2017-05-04T02:17:16.905Z,60
2017-05-04T02:18:27.418Z,60.47
2017-05-04T02:19:37.682Z,60.57
2017-05-04T02:20:47.325Z,60.95
2017-05-04T02:21:57.580Z,61.43
2017-05-04T02:23:07.843Z,61.21
2017-05-04T02:24:17.778Z,61.43
2017-05-04T02:25:28.070Z,61.4
2017-05-04T02:26:38.330Z,61.21
2017-05-04T02:27:48.585Z,60.35
2017-05-04T02:28:58.523Z,60.35
2017-05-04T02:30:08.719Z,60.16
2017-05-04T02:31:18.978Z,60.25
2017-05-04T02:32:29.236Z,60.25
2017-05-04T02:33:39.491Z,61.11
2017-05-04T02:34:49.750Z,60.44
2017-05-04T02:36:09.685Z,60.73
2017-05-04T02:37:19.320Z,61.3
2017-05-04T02:38:29.582Z,61.3
2017-05-04T02:39:39.854Z,61.49
2017-05-04T02:40:50.112Z,61.49
2017-05-04T02:42:00.623Z,61.3
2017-05-04T02:43:09.942Z,61.49
2017-05-04T02:44:20.203Z,61.4
2017-05-04T02:45:30.150Z,61.58
2017-05-04T02:46:40.412Z,61.4
2017-05-04T02:47:50.928Z,61.02
2017-05-04T02:49:01.190Z,61.11
2017-05-04T02:50:11.450Z,61.68
2017-05-04T02:51:21.707Z,62.34
2017-05-04T02:52:31.968Z,63.1
2017-05-04T02:53:42.478Z,63.57
2017-05-04T02:54:52.738Z,63.39
2017-05-04T02:56:02.989Z,62.43
2017-05-04T02:57:12.933Z,62.53
2017-05-04T02:58:23.191Z,63.67
2017-05-04T02:59:33.743Z,64.52
2017-05-04T03:00:43.998Z,64.3
2017-05-04T03:01:54.270Z,64.39
2017-05-04T03:03:04.530Z,64.77
2017-05-04T03:04:14.795Z,65.34
2017-05-04T03:05:25.327Z,64.77
2017-05-04T03:06:35.583Z,65.06
2017-05-04T03:07:45.870Z,65.15
2017-05-04T03:08:55.812Z,65.15
2017-05-04T03:10:06.069Z,65.06
2017-05-04T03:11:16.627Z,64.39
2017-05-04T03:12:26.885Z,64.49
2017-05-04T03:13:37.158Z,64.58
2017-05-04T03:14:46.791Z,65.25
2017-05-04T03:15:57.056Z,65.34
2017-05-04T03:17:06.932Z,64.77
2017-05-04T03:18:16.876Z,64.68
2017-05-04T03:19:27.130Z,64.11
2017-05-04T03:20:37.387Z,63.73
2017-05-04T03:21:47.336Z,63.26
2017-05-04T03:22:59.920Z,63.73
2017-05-04T03:24:10.191Z,64.58
2017-05-04T03:25:19.815Z,65.34
2017-05-04T03:26:29.756Z,64.49
2017-05-04T03:27:40.009Z,64.87
2017-05-04T03:28:50.514Z,64.96
2017-05-04T03:30:00.772Z,65.63
2017-05-04T03:31:11.046Z,65.06
2017-05-04T03:32:20.989Z,65.15
2017-05-04T03:33:30.616Z,64.96
2017-05-04T03:34:44.046Z,66.38
2017-05-04T03:35:53.988Z,66.28
2017-05-04T03:37:04.249Z,66.47
2017-05-04T03:38:14.194Z,66.86
2017-05-04T03:39:24.453Z,68.08
2017-05-04T03:40:35.011Z,68.08
2017-05-04T03:41:44.951Z,67.9
2017-05-04T03:42:54.896Z,67.61
2017-05-04T03:44:05.154Z,68.08
2017-05-04T03:45:15.110Z,67.61
2017-05-04T03:46:25.663Z,66.86
2017-05-04T03:47:35.917Z,66.95
2017-05-04T03:48:46.187Z,66.95
2017-05-04T03:49:56.445Z,66.95
2017-05-04T03:51:06.706Z,66.47
2017-05-04T03:52:16.901Z,65.81
2017-05-04T03:53:26.845Z,65.72
2017-05-04T03:54:37.125Z,65.72
2017-05-04T03:55:47.381Z,65.81
2017-05-04T03:56:57.637Z,65.91
2017-05-04T03:58:07.880Z,65.91
2017-05-04T03:59:17.824Z,65.72
2017-05-04T04:00:28.087Z,65.72
2017-05-04T04:01:38.346Z,65.91
2017-05-04T04:02:48.611Z,65.91
2017-05-04T04:03:58.807Z,66.19
2017-05-04T04:05:08.433Z,66.67
2017-05-04T04:06:18.377Z,66.86
2017-05-04T04:07:28.659Z,66.57
2017-05-04T04:08:38.918Z,66.28
2017-05-04T04:09:49.118Z,66.38
2017-05-04T04:10:59.378Z,66.47
2017-05-04T04:12:09.318Z,66.28
2017-05-04T04:13:19.266Z,65.81
2017-05-04T04:14:29.524Z,65.81
2017-05-04T04:15:40.034Z,66
2017-05-04T04:16:50.293Z,65.91
2017-05-04T04:18:00.548Z,65.44
2017-05-04T04:19:09.891Z,64.68
2017-05-04T04:20:19.839Z,64.87
2017-05-04T04:21:30.342Z,64.58
2017-05-04T04:22:40.592Z,64.39
2017-05-04T04:23:50.851Z,65.66
2017-05-04T04:25:01.110Z,67.33
2017-05-04T04:26:10.740Z,68.21
2017-05-04T04:27:21.253Z,68.56
2017-05-04T04:28:31.202Z,68.5
2017-05-04T04:29:41.466Z,69.26
2017-05-04T04:30:51.727Z,68.46
2017-05-04T04:32:01.357Z,68.27
2017-05-04T04:33:11.917Z,68.18
2017-05-04T04:34:22.176Z,68.5
2017-05-04T04:35:31.809Z,68.56
2017-05-04T04:36:42.066Z,68.75
2017-05-04T04:37:52.328Z,68.46
2017-05-04T04:39:02.845Z,68.56
2017-05-04T04:40:13.099Z,69.13
2017-05-04T04:41:23.360Z,69.32
2017-05-04T04:42:33.624Z,69.51
2017-05-04T04:43:43.888Z,70.17
2017-05-04T04:44:54.144Z,70.36
2017-05-04T04:46:04.400Z,70.26
2017-05-04T04:47:14.341Z,70.64
2017-05-04T04:48:24.600Z,70.36
2017-05-04T04:49:34.862Z,70.36
2017-05-04T04:50:45.416Z,70.36
2017-05-04T04:51:55.667Z,70.07
2017-05-04T04:53:05.925Z,71.12
2017-05-04T04:54:16.191Z,71.06
2017-05-04T04:55:26.448Z,70.97
2017-05-04T04:56:36.957Z,71.15
2017-05-04T04:57:47.231Z,71.91
2017-05-04T04:58:57.186Z,72
2017-05-04T05:00:07.440Z,71.81
2017-05-04T05:01:17.382Z,71.15
2017-05-04T05:02:27.887Z,71.44
2017-05-04T05:03:38.142Z,71.25
2017-05-04T05:04:48.407Z,71.62
2017-05-04T05:05:58.660Z,71.06
2017-05-04T05:07:08.913Z,70.78
2017-05-04T05:08:19.155Z,70.97
2017-05-04T05:09:29.094Z,70.58
2017-05-04T05:10:39.363Z,70.87
2017-05-04T05:11:49.632Z,70.58
2017-05-04T05:12:59.888Z,70.39
2017-05-04T05:14:09.835Z,69.64
2017-05-04T05:15:19.792Z,69.29
2017-05-04T05:16:30.054Z,69.48
2017-05-04T05:17:40.314Z,69.29
2017-05-04T05:18:50.257Z,68.63
2017-05-04T05:20:00.197Z,68.15
2017-05-04T05:21:10.466Z,67.21
2017-05-04T05:22:20.737Z,67.68
2017-05-04T05:23:31.006Z,67.49
2017-05-04T05:24:41.268Z,67.4
2017-05-04T05:25:51.536Z,67.11
2017-05-04T05:27:01.797Z,67.58
2017-05-04T05:28:12.056Z,66.64
2017-05-04T05:29:22.317Z,66.45
2017-05-04T05:30:32.575Z,66.07
2017-05-04T05:31:42.847Z,65.5
2017-05-04T05:32:53.116Z,65.97
2017-05-04T05:34:03.387Z,65.78
2017-05-04T05:35:13.652Z,65.91
2017-05-04T05:36:23.914Z,65.25
2017-05-04T05:37:34.174Z,65.72
2017-05-04T05:38:44.431Z,64.68
2017-05-04T05:39:54.692Z,64.78
2017-05-04T05:41:04.956Z,64.49
2017-05-04T05:42:14.902Z,64.11
2017-05-04T05:43:25.164Z,63.64
2017-05-04T05:44:35.113Z,63.64
2017-05-04T05:45:45.059Z,63.82
2017-05-04T05:46:55.318Z,62.97
2017-05-04T05:48:05.584Z,63.64
2017-05-04T05:49:15.543Z,64.87
2017-05-04T05:50:25.506Z,64.68
2017-05-04T05:51:35.775Z,64.78
2017-05-04T05:52:46.046Z,64.01
2017-05-04T05:53:55.994Z,64.11
2017-05-04T05:55:05.936Z,63.64
2017-05-04T05:56:15.884Z,63.64
2017-05-04T05:57:26.148Z,63.17
2017-05-04T05:58:36.410Z,63.07
2017-05-04T05:59:46.659Z,62.69
2017-05-04T06:00:56.922Z,62.78
2017-05-04T06:02:07.183Z,62.88
2017-05-04T06:03:17.138Z,62.69
2017-05-04T06:04:27.402Z,62.21
2017-05-04T06:05:37.661Z,62.69
2017-05-04T06:06:47.927Z,61.93
2017-05-04T06:07:58.189Z,62.4
2017-05-04T06:09:08.130Z,62.62
2017-05-04T06:10:18.388Z,62.43
2017-05-04T06:11:28.336Z,61.87
2017-05-04T06:12:38.613Z,61.2
2017-05-04T06:13:48.875Z,61.39
2017-05-04T06:14:59.174Z,61.39
2017-05-04T06:16:09.147Z,61.3
2017-05-04T06:17:18.772Z,61.11
2017-05-04T06:18:28.720Z,61.39
2017-05-04T06:19:38.984Z,61.39
2017-05-04T06:20:49.240Z,60.53
2017-05-04T06:21:59.497Z,60.35
2017-05-04T06:23:09.758Z,60.25
2017-05-04T06:24:20.013Z,60.82
2017-05-04T06:25:29.957Z,60.63
2017-05-04T06:26:40.214Z,60.16
2017-05-04T06:27:50.476Z,60.44
2017-05-04T06:29:00.425Z,60.16
2017-05-04T06:30:10.376Z,60.25
2017-05-04T06:31:20.639Z,60.44
2017-05-04T06:32:30.893Z,61.01
2017-05-04T06:33:40.839Z,61.01
2017-05-04T06:34:51.092Z,60.25
2017-05-04T06:36:01.354Z,59.59
2017-05-04T06:37:11.299Z,60.35
2017-05-04T06:38:21.568Z,60.25
2017-05-04T06:39:31.830Z,60.63
2017-05-04T06:40:42.087Z,59.78
2017-05-04T06:41:52.346Z,60.06
2017-05-04T06:43:01.977Z,59.78
2017-05-04T06:44:12.248Z,60.06
2017-05-04T06:45:22.518Z,60.35
2017-05-04T06:46:32.777Z,60.16
2017-05-04T06:47:43.048Z,59.62
2017-05-04T06:48:53.307Z,60.1
2017-05-04T06:50:03.571Z,59.21
2017-05-04T06:51:13.833Z,59.62
2017-05-04T06:52:24.091Z,60.57
2017-05-04T06:53:34.357Z,60.47
2017-05-04T06:54:44.622Z,59.71
2017-05-04T06:55:54.565Z,59.33
2017-05-04T06:57:04.827Z,59.62
2017-05-04T06:58:15.192Z,59.14
2017-05-04T06:59:25.427Z,59.05
2017-05-04T07:00:35.543Z,58.76
2017-05-04T07:01:45.803Z,58
2017-05-04T07:02:56.061Z,59.43
2017-05-04T07:04:06.010Z,58.48
2017-05-04T07:05:22.407Z,58.2
2017-05-04T07:06:32.893Z,58.48
2017-05-04T07:07:43.044Z,58
2017-05-04T07:08:53.524Z,57.72
2017-05-04T07:10:03.998Z,58.1
2017-05-04T07:11:14.157Z,58.2
2017-05-04T07:12:24.309Z,58.2
2017-05-04T07:13:34.459Z,58
2017-05-04T07:14:44.942Z,57.43
2017-05-04T07:15:55.090Z,58.86
2017-05-04T07:17:05.574Z,58.39
2017-05-04T07:18:16.050Z,57.53
2017-05-04T07:19:26.538Z,58.58
2017-05-04T07:20:36.704Z,58.1
2017-05-04T07:21:47.207Z,58.39
2017-05-04T07:22:58.120Z,58
2017-05-04T07:24:07.944Z,57.62
2017-05-04T07:25:17.780Z,57.72
2017-05-04T07:26:28.261Z,57.56
2017-05-04T07:27:38.740Z,56.99
2017-05-04T07:28:49.226Z,56.13
2017-05-04T07:29:59.718Z,55.94
2017-05-04T07:31:09.867Z,55.94
2017-05-04T07:32:20.022Z,56.13
2017-05-04T07:33:30.504Z,56.04
2017-05-04T07:34:40.987Z,55.37
2017-05-04T07:35:51.470Z,55.66
2017-05-04T07:37:01.950Z,54.99
2017-05-04T07:38:12.098Z,54.17
2017-05-04T07:39:22.606Z,53.97
2017-05-04T07:40:32.771Z,53.69
2017-05-04T07:41:42.925Z,53.31
2017-05-04T07:42:53.411Z,53.5
2017-05-04T07:44:03.907Z,53.88
2017-05-04T07:45:14.073Z,53.69
2017-05-04T07:46:24.227Z,52.26
2017-05-04T07:47:34.713Z,52.45
2017-05-04T07:48:44.868Z,53.12
2017-05-04T07:49:55.349Z,52.93
2017-05-04T07:51:05.503Z,53.31
2017-05-04T07:52:15.334Z,53.22
2017-05-04T07:53:25.821Z,53.22
2017-05-04T07:54:36.304Z,53.12
2017-05-04T07:55:46.462Z,52.55
2017-05-04T07:56:56.945Z,53.31
2017-05-04T07:58:07.464Z,53.12
2017-05-04T07:59:17.282Z,53.5
2017-05-04T08:00:26.796Z,52.55
2017-05-04T08:01:37.275Z,52.45
2017-05-04T08:02:47.761Z,53.78
2017-05-04T08:03:58.343Z,53.03
2017-05-04T08:05:08.169Z,52.55
2017-05-04T08:06:18.653Z,53.31
2017-05-04T08:07:28.811Z,53.22
2017-05-04T08:08:39.288Z,53.22
2017-05-04T08:09:49.777Z,53.03
2017-05-04T08:10:59.935Z,52.45
2017-05-04T08:12:10.418Z,51.98
2017-05-04T08:13:20.897Z,51.98
2017-05-04T08:14:31.047Z,51.34
2017-05-04T08:15:41.523Z,52.2
2017-05-04T08:16:51.669Z,51.34
2017-05-04T08:18:01.853Z,50.96
2017-05-04T08:19:12.331Z,51.25
2017-05-04T08:20:22.208Z,50.96
2017-05-04T08:21:32.366Z,50.96
2017-05-04T08:22:42.516Z,50.68
2017-05-04T08:23:52.914Z,50.68
2017-05-04T08:25:03.402Z,50.29
2017-05-04T08:26:13.886Z,51.08
2017-05-04T08:27:23.706Z,50.7
2017-05-04T08:28:34.620Z,50.79
2017-05-04T08:29:45.108Z,50.99
2017-05-04T08:30:55.265Z,50.7
2017-05-04T08:32:05.794Z,50.79
2017-05-04T08:33:15.621Z,50.13
2017-05-04T08:34:26.106Z,50.32
2017-05-04T08:35:36.593Z,50.42
2017-05-04T08:36:47.075Z,49.65
2017-05-04T08:37:57.233Z,49.56
2017-05-04T08:39:07.716Z,49.65
2017-05-04T08:40:18.195Z,49.68
2017-05-04T08:41:28.342Z,49.87
2017-05-04T08:42:38.826Z,49.49
2017-05-04T08:43:49.307Z,49.2
2017-05-04T08:44:59.793Z,49.2
2017-05-04T08:46:09.622Z,48.73
2017-05-04T08:47:20.105Z,49.11
2017-05-04T08:48:30.590Z,49.2
2017-05-04T08:49:40.741Z,49.75
2017-05-04T08:50:51.221Z,50.04
2017-05-04T08:52:01.059Z,49.65
2017-05-04T08:53:11.213Z,49.18
2017-05-04T08:54:21.043Z,49.85
2017-05-04T08:55:31.202Z,50.13
2017-05-04T08:56:41.687Z,50.89
2017-05-04T08:57:52.171Z,50.6
2017-05-04T08:59:02.326Z,50.32
2017-05-04T09:00:12.482Z,52.22
2017-05-04T09:01:22.313Z,50.89
2017-05-04T09:02:32.464Z,50.42
2017-05-04T09:03:42.952Z,50.04
2017-05-04T09:04:53.112Z,49.46
2017-05-04T09:06:03.595Z,49.37
2017-05-04T09:07:14.083Z,49.94
2017-05-04T09:08:23.910Z,49.65
2017-05-04T09:09:34.074Z,48.92
2017-05-04T09:10:44.238Z,49.11
2017-05-04T09:11:54.391Z,48.73
2017-05-04T09:13:04.873Z,48.82
2017-05-04T09:14:15.353Z,48.44
2017-05-04T09:15:25.835Z,48.82
2017-05-04T09:16:36.331Z,48.82
2017-05-04T09:17:46.162Z,49.4
2017-05-04T09:18:56.647Z,48.73
2017-05-04T09:20:06.807Z,48.99
2017-05-04T09:21:16.979Z,50.13
2017-05-04T09:22:27.134Z,49.77
2017-05-04T09:23:37.618Z,49.01
2017-05-04T09:24:48.108Z,49.01
2017-05-04T09:25:58.596Z,49.4
2017-05-04T09:27:09.084Z,48.92
2017-05-04T09:28:19.235Z,49.77
2017-05-04T09:29:29.393Z,48.92
2017-05-04T09:30:39.887Z,48.63
2017-05-04T09:31:50.377Z,48.82
2017-05-04T09:33:00.861Z,48.73
2017-05-04T09:34:11.349Z,49.2
2017-05-04T09:35:21.834Z,48.82
2017-05-04T09:36:32.277Z,48.06
2017-05-04T09:37:42.765Z,49.01
2017-05-04T09:38:53.256Z,48.92
2017-05-04T09:40:04.186Z,48.16
2017-05-04T09:41:14.666Z,48.08
2017-05-04T09:42:24.820Z,47.8
2017-05-04T09:43:34.983Z,49.04
2017-05-04T09:44:45.476Z,46.84
2017-05-04T09:45:55.400Z,45.8
2017-05-04T09:47:05.888Z,45.89
2017-05-04T09:48:16.053Z,46.18
2017-05-04T09:49:26.538Z,46.28
2017-05-04T09:50:36.716Z,46.18
2017-05-04T09:51:47.202Z,45.06
2017-05-04T09:52:57.358Z,45.44
2017-05-04T09:54:07.519Z,45.06
2017-05-04T09:55:17.349Z,43.82
2017-05-04T09:56:27.176Z,42.96
2017-05-04T09:57:37.664Z,43.63
2017-05-04T09:58:48.152Z,43.73
2017-05-04T09:59:58.309Z,43.06
2017-05-04T10:01:08.492Z,42.49
2017-05-04T10:02:18.642Z,42.49
2017-05-04T10:03:29.128Z,42.87
2017-05-04T10:04:39.633Z,43.54
2017-05-04T10:05:49.458Z,44.11
2017-05-04T10:06:59.614Z,43.25
2017-05-04T10:08:09.769Z,43.16
2017-05-04T10:09:19.920Z,44.01
2017-05-04T10:10:30.075Z,43.91
2017-05-04T10:11:40.560Z,45.04
2017-05-04T10:12:51.063Z,44.66
2017-05-04T10:14:00.892Z,44.75
2017-05-04T10:15:11.048Z,46.28
2017-05-04T10:16:21.534Z,46.37
2017-05-04T10:17:32.461Z,46.39
2017-05-04T10:18:42.957Z,45.54
2017-05-04T10:19:53.730Z,45.25
2017-05-04T10:21:03.888Z,45.63
2017-05-04T10:22:14.046Z,46.11
2017-05-04T10:23:24.205Z,46.11
2017-05-04T10:24:34.685Z,45.63
2017-05-04T10:25:45.621Z,46.39
2017-05-04T10:26:56.104Z,46.11
2017-05-04T10:28:06.269Z,45.94
2017-05-04T10:29:16.858Z,45.28
2017-05-04T10:30:26.687Z,45.37
2017-05-04T10:31:37.184Z,44.23
2017-05-04T10:32:47.343Z,44.04
2017-05-04T10:33:57.499Z,44.82
2017-05-04T10:35:07.645Z,45.2
2017-05-04T10:36:17.476Z,45.1
2017-05-04T10:37:27.332Z,43.7
2017-05-04T10:38:37.825Z,43.03
2017-05-04T10:39:47.978Z,42.96
2017-05-04T10:40:58.142Z,42.96
2017-05-04T10:42:08.634Z,42.29
2017-05-04T10:43:19.125Z,42.57
2017-05-04T10:44:29.622Z,41.62
2017-05-04T10:45:40.109Z,41.83
2017-05-04T10:46:50.594Z,41.55
2017-05-04T10:48:01.080Z,40.88
2017-05-04T10:49:10.910Z,40.3
2017-05-04T10:50:21.394Z,40.69
2017-05-04T10:51:31.877Z,40.23
2017-05-04T10:52:42.380Z,39.18
2017-05-04T10:53:52.896Z,39.56
2017-05-04T10:55:03.377Z,39.2
2017-05-04T10:56:13.537Z,39.48
2017-05-04T10:57:24.030Z,38.53
2017-05-04T10:58:33.862Z,37.49
2017-05-04T10:59:44.349Z,37.68
2017-05-04T11:00:54.536Z,37.49
2017-05-04T11:02:05.021Z,37.21
2017-05-04T11:03:15.506Z,37.02
2017-05-04T11:04:25.991Z,37.04
2017-05-04T11:05:36.153Z,36.55
2017-05-04T11:06:46.312Z,35.98
2017-05-04T11:07:56.803Z,35.61
2017-05-04T11:09:06.973Z,35.61
2017-05-04T11:10:17.471Z,34.75
2017-05-04T11:11:27.966Z,35.25
2017-05-04T11:12:38.122Z,34.48
2017-05-04T11:13:48.610Z,34.58
2017-05-04T11:14:59.103Z,34.41
2017-05-04T11:16:09.592Z,33.83
2017-05-04T11:17:20.085Z,33.45
2017-05-04T11:18:30.249Z,33.25
2017-05-04T11:19:40.750Z,32.98
2017-05-04T11:20:51.239Z,32.79
2017-05-04T11:22:01.735Z,32.81
2017-05-04T11:23:11.902Z,32.54
2017-05-04T11:24:22.066Z,31.87
2017-05-04T11:25:32.562Z,30.44
2017-05-04T11:26:43.053Z,30.36
2017-05-04T11:27:53.540Z,29.99
2017-05-04T11:29:04.031Z,30
2017-05-04T11:30:14.529Z,29.44
2017-05-04T11:31:24.982Z,27.91
2017-05-04T11:32:35.154Z,26.76
2017-05-04T11:33:45.649Z,26.39
2017-05-04T11:34:55.812Z,26.5
2017-05-04T11:36:06.305Z,26.03
2017-05-04T11:37:16.813Z,25.75
2017-05-04T11:38:26.986Z,25.38
2017-05-04T11:39:37.151Z,23.56
2017-05-04T11:40:47.648Z,22.2
2017-05-04T11:41:57.818Z,23.35
2017-05-04T11:43:08.313Z,23.75
2017-05-04T11:44:18.152Z,23.65
2017-05-04T11:45:28.321Z,21.04
2017-05-04T11:46:38.492Z,22.49
2017-05-04T11:47:49.006Z,22.28
2017-05-04T11:48:59.542Z,23.07
2017-05-04T11:50:09.718Z,22.77
2017-05-04T11:51:20.219Z,23.25
2017-05-04T11:52:30.057Z,22.59
2017-05-04T11:53:40.563Z,22.7
2017-05-04T11:54:50.732Z,22.02
2017-05-04T11:56:00.897Z,21.36
2017-05-04T11:57:11.065Z,21.75
2017-05-04T11:58:22.013Z,21.15
2017-05-04T11:59:32.945Z,21.65
2017-05-04T12:00:43.435Z,21.55
2017-05-04T12:01:53.935Z,21.65
2017-05-04T12:03:04.432Z,21.65
2017-05-04T12:04:14.605Z,21.73
2017-05-04T12:05:25.530Z,21.54
2017-05-04T12:06:35.707Z,21.73
2017-05-04T12:07:45.832Z,21.62
2017-05-04T12:08:55.994Z,21.25
2017-05-04T12:10:06.487Z,20.86
2017-05-04T12:11:16.653Z,21.14
2017-05-04T12:12:26.824Z,20.86
2017-05-04T12:13:37.758Z,21.44
2017-05-04T12:14:48.255Z,21.25
2017-05-04T12:15:58.752Z,20.48
2017-05-04T12:17:09.248Z,21.06
2017-05-04T12:18:20.187Z,20.78
2017-05-04T12:19:30.705Z,20.67
2017-05-04T12:20:40.871Z,20
2017-05-04T12:21:51.366Z,19.9
2017-05-04T12:23:02.299Z,19.89
2017-05-04T12:24:12.466Z,19.88
2017-05-04T12:25:22.635Z,19.77
2017-05-04T12:26:32.812Z,21.1
2017-05-04T12:27:43.351Z,21.68
2017-05-04T12:28:53.848Z,22.16
2017-05-04T12:30:04.358Z,21.98
2017-05-04T12:31:15.294Z,21.69
2017-05-04T12:32:25.794Z,21.79
2017-05-04T12:33:36.298Z,19.58
2017-05-04T12:34:46.798Z,19.96
2017-05-04T12:35:57.295Z,19.68
2017-05-04T12:37:08.230Z,20.43
2017-05-04T12:38:19.615Z,19.49
2017-05-04T12:39:30.112Z,18.06
2017-05-04T12:40:41.035Z,18.92
2017-05-04T12:41:51.208Z,17.87
2017-05-04T12:43:01.046Z,19.2
2017-05-04T12:44:11.543Z,19.21
2017-05-04T12:45:22.042Z,18.82
2017-05-04T12:46:32.537Z,19.1
2017-05-04T12:47:43.038Z,18.82
2017-05-04T12:48:53.996Z,20.25
2017-05-04T12:50:04.178Z,20.74
2017-05-04T12:51:14.344Z,19.96
2017-05-04T12:52:24.840Z,19.96
2017-05-04T12:53:35.009Z,19.96
2017-05-04T12:54:45.505Z,19.67
2017-05-04T12:55:56.006Z,19.76
2017-05-04T12:57:06.174Z,19.57
2017-05-04T12:58:16.347Z,19.47
2017-05-04T12:59:26.842Z,19.58
2017-05-04T13:00:37.339Z,18.52
2017-05-04T13:01:47.836Z,18.8
2017-05-04T13:02:58.287Z,19.65
2017-05-04T13:04:08.790Z,19.83
2017-05-04T13:05:19.289Z,20.01
2017-05-04T13:06:29.787Z,20.01
2017-05-04T13:07:40.285Z,21.15
2017-05-04T13:08:50.784Z,19.92
2017-05-04T13:10:00.949Z,19.73
2017-05-04T13:11:11.119Z,20.5
2017-05-04T13:12:21.616Z,21.36
2017-05-04T13:13:32.108Z,20.88
2017-05-04T13:14:42.274Z,19.65
2017-05-04T13:15:52.774Z,18.95
2017-05-04T13:17:03.278Z,19.82
2017-05-04T13:18:13.779Z,19.62
2017-05-04T13:19:23.947Z,19.92
2017-05-04T13:20:34.879Z,18.95
2017-05-04T13:21:45.412Z,19.83
2017-05-04T13:22:55.934Z,19.75
2017-05-04T13:24:06.440Z,19.1
2017-05-04T13:25:16.945Z,17.57
2017-05-04T13:26:27.447Z,15.94
2017-05-04T13:27:37.955Z,16.03
2017-05-04T13:28:48.475Z,15.84
2017-05-04T13:29:58.972Z,14.89
2017-05-04T13:31:09.147Z,15.08
2017-05-04T13:32:19.098Z,15.08
2017-05-04T13:33:29.601Z,15.28
2017-05-04T13:34:40.113Z,14.6
2017-05-04T13:35:50.619Z,15.08
2017-05-04T13:37:00.791Z,15.17
2017-05-04T13:38:11.301Z,16.04
2017-05-04T13:39:20.824Z,15.75
2017-05-04T13:40:31.335Z,14.78
2017-05-04T13:41:41.839Z,15.64
2017-05-04T13:42:52.344Z,17.18
2017-05-04T13:44:02.845Z,15.83
2017-05-04T13:45:12.695Z,15.94
2017-05-04T13:46:23.634Z,16.69
2017-05-04T13:47:33.814Z,16.61
2017-05-04T13:48:44.320Z,14.98
2017-05-04T13:49:54.499Z,14.9
2017-05-04T13:51:05.010Z,14.91
2017-05-04T13:52:15.183Z,12.99
2017-05-04T13:53:25.710Z,13.37
2017-05-04T13:54:36.226Z,14.23
2017-05-04T13:55:46.751Z,14.32
2017-05-04T13:56:56.925Z,14.78
2017-05-04T13:58:07.098Z,15.36
2017-05-04T13:59:17.282Z,16.41
2017-05-04T14:00:27.459Z,16.03
2017-05-04T14:01:37.959Z,15.76
2017-05-04T14:02:48.464Z,14.7
2017-05-04T14:03:58.636Z,15.08
2017-05-04T14:05:08.817Z,16.23
2017-05-04T14:06:18.689Z,16.8
2017-05-04T14:07:28.549Z,15.75
2017-05-04T14:08:39.337Z,15.19
2017-05-04T14:09:49.839Z,15.21
2017-05-04T14:11:00.352Z,14.64
2017-05-04T14:12:10.525Z,13.48
2017-05-04T14:13:21.027Z,13.48
2017-05-04T14:14:31.531Z,13.96
2017-05-04T14:15:42.036Z,13.49
2017-05-04T14:16:52.546Z,13.21
2017-05-04T14:18:03.048Z,12.26
2017-05-04T14:19:13.223Z,11.77
2017-05-04T14:20:23.413Z,12.46
2017-05-04T14:21:33.585Z,12.08
2017-05-04T14:22:44.090Z,12
2017-05-04T14:23:54.594Z,11.62
2017-05-04T14:25:05.214Z,10.25
2017-05-04T14:26:15.721Z,10.55
2017-05-04T14:27:25.239Z,9.48
2017-05-04T14:28:36.176Z,10.17
2017-05-04T14:29:46.350Z,9.78
2017-05-04T14:30:57.299Z,9.88
2017-05-04T14:32:07.814Z,9.5
2017-05-04T14:33:17.665Z,9.21
2017-05-04T14:34:27.847Z,9.8
2017-05-04T14:35:38.023Z,9.21
2017-05-04T14:36:48.544Z,8.33
2017-05-04T14:37:59.518Z,8.91
2017-05-04T14:39:09.688Z,8.32
2017-05-04T14:40:19.861Z,9.75
2017-05-04T14:41:30.044Z,9.56
2017-05-04T14:42:40.323Z,9.27
2017-05-04T14:43:50.868Z,10.52
2017-05-04T14:45:01.373Z,10.04
2017-05-04T14:46:11.879Z,9.36
2017-05-04T14:47:22.388Z,10.5
2017-05-04T14:48:32.241Z,11.19
2017-05-04T14:49:42.748Z,10.13
2017-05-04T14:50:53.257Z,11.01
2017-05-04T14:52:03.766Z,10.71
2017-05-04T14:53:13.941Z,10.33
2017-05-04T14:54:24.445Z,9.94
2017-05-04T14:55:34.954Z,9.94
2017-05-04T14:56:45.460Z,9.55
2017-05-04T14:57:55.964Z,9.07
2017-05-04T14:59:06.472Z,9.37
2017-05-04T15:00:16.977Z,8.69
2017-05-04T15:01:26.822Z,8.3
2017-05-04T15:02:37.321Z,9.16
2017-05-04T15:03:47.826Z,9.75
2017-05-04T15:04:58.333Z,9.47
2017-05-04T15:06:08.840Z,9.28
2017-05-04T15:07:18.358Z,9.19
2017-05-04T15:08:28.865Z,8.42
2017-05-04T15:09:39.375Z,8.32
2017-05-04T15:10:50.314Z,8.12